createdAt,value
2022-11-18T00:00:16.653Z,22.80
2022-11-18T00:02:44.963Z,22.80
2022-11-18T00:05:13.469Z,22.80
2022-11-18T00:07:42.422Z,22.81
2022-11-18T00:10:11.313Z,22.80
2022-11-18T00:12:57.075Z,22.80
2022-11-18T00:15:31.602Z,22.79
2022-11-18T00:18:00.220Z,22.77
2022-11-18T00:20:28.463Z,22.77
2022-11-18T00:22:56.944Z,22.76
2022-11-18T00:25:25.178Z,22.76
2022-11-18T00:27:53.654Z,22.76
2022-11-18T00:30:21.855Z,22.76
2022-11-18T00:32:51.528Z,22.76
2022-11-18T00:35:19.939Z,22.75
2022-11-18T00:37:48.453Z,22.75
2022-11-18T00:40:16.908Z,22.74
2022-11-18T00:42:52.727Z,22.74
2022-11-18T00:45:21.165Z,22.74
2022-11-18T00:47:49.427Z,22.74
2022-11-18T00:50:19.496Z,22.73
2022-11-18T00:52:48.238Z,22.72
2022-11-18T00:55:16.512Z,22.71
2022-11-18T00:57:44.807Z,22.72
2022-11-18T01:00:13.609Z,22.71
2022-11-18T01:02:43.588Z,22.70
2022-11-18T01:05:11.852Z,22.70
2022-11-18T01:07:42.528Z,22.70
2022-11-18T01:10:11.161Z,22.70
2022-11-18T01:12:56.647Z,22.69
2022-11-18T01:15:25.080Z,22.67
2022-11-18T01:17:53.345Z,22.67
2022-11-18T01:20:21.946Z,22.68
2022-11-18T01:22:51.824Z,22.67
2022-11-18T01:25:20.600Z,22.67
2022-11-18T01:27:48.840Z,22.67
2022-11-18T01:30:17.935Z,22.66
2022-11-18T01:32:46.251Z,22.66
2022-11-18T01:35:14.565Z,22.65
2022-11-18T01:37:42.844Z,22.65
2022-11-18T01:40:14.264Z,22.63
2022-11-18T01:42:42.692Z,22.64
2022-11-18T01:45:21.828Z,22.65
2022-11-18T01:47:50.983Z,22.65
2022-11-18T01:50:19.848Z,22.65
2022-11-18T01:52:51.580Z,22.64
2022-11-18T01:55:24.239Z,22.65
2022-11-18T01:57:52.888Z,22.65
2022-11-18T02:00:21.323Z,22.63
2022-11-18T02:02:49.624Z,22.63
2022-11-18T02:05:17.837Z,22.63
2022-11-18T02:07:46.371Z,22.64
2022-11-18T02:10:20.219Z,22.63
2022-11-18T02:12:50.447Z,22.62
2022-11-18T02:15:19.277Z,22.61
2022-11-18T02:17:50.285Z,22.61
2022-11-18T02:20:28.517Z,22.60
2022-11-18T02:23:38.203Z,22.60
2022-11-18T02:26:29.779Z,22.59
2022-11-18T02:29:02.745Z,22.59
2022-11-18T02:31:33.459Z,22.58
2022-11-18T02:34:04.911Z,22.58
2022-11-18T02:36:35.144Z,22.58
2022-11-18T02:39:07.076Z,22.57
2022-11-18T02:41:36.135Z,22.57
2022-11-18T02:44:06.653Z,22.57
2022-11-18T02:46:36.392Z,22.56
2022-11-18T02:49:06.800Z,22.58
2022-11-18T02:51:35.124Z,22.55
2022-11-18T02:54:05.076Z,22.55
2022-11-18T02:56:33.929Z,22.55
2022-11-18T02:59:02.232Z,22.55
2022-11-18T03:01:32.660Z,22.56
2022-11-18T03:04:01.232Z,22.56
2022-11-18T03:06:31.183Z,22.54
2022-11-18T03:09:04.384Z,22.54
2022-11-18T03:11:33.781Z,22.55
2022-11-18T03:14:10.160Z,22.54
2022-11-18T03:16:41.473Z,22.54
2022-11-18T03:19:11.477Z,22.54
2022-11-18T03:21:42.154Z,22.52
2022-11-18T03:24:12.823Z,22.53
2022-11-18T03:26:41.668Z,22.53
2022-11-18T03:29:11.887Z,22.52
2022-11-18T03:31:42.990Z,22.52
2022-11-18T03:34:12.465Z,22.52
2022-11-18T03:36:43.376Z,22.53
2022-11-18T03:39:11.933Z,22.51
2022-11-18T03:41:41.524Z,22.51
2022-11-18T03:44:12.990Z,22.50
2022-11-18T03:46:44.702Z,22.51
2022-11-18T03:49:15.163Z,22.50
2022-11-18T03:51:44.804Z,22.50
2022-11-18T03:54:14.133Z,22.50
2022-11-18T03:56:43.775Z,22.49
2022-11-18T03:59:14.788Z,22.48
2022-11-18T04:01:46.138Z,22.48
2022-11-18T04:04:14.422Z,22.48
2022-11-18T04:06:43.816Z,22.47
2022-11-18T04:09:15.716Z,22.47
2022-11-18T04:12:03.982Z,22.47
2022-11-18T04:14:32.754Z,22.47
2022-11-18T04:17:03.605Z,22.46
2022-11-18T04:19:32.016Z,22.46
2022-11-18T04:22:00.209Z,22.46
2022-11-18T04:24:28.472Z,22.46
2022-11-18T04:26:56.692Z,22.46
2022-11-18T04:29:24.989Z,22.45
2022-11-18T04:31:53.259Z,22.46
2022-11-18T04:34:23.055Z,22.45
2022-11-18T04:36:51.412Z,22.45
2022-11-18T04:39:20.016Z,22.45
2022-11-18T04:41:56.968Z,22.44
2022-11-18T04:44:25.665Z,22.44
2022-11-18T04:46:53.920Z,22.44
2022-11-18T04:49:23.704Z,22.43
2022-11-18T04:51:52.087Z,22.43
2022-11-18T04:54:20.432Z,22.44
2022-11-18T04:56:49.843Z,22.43
2022-11-18T04:59:20.282Z,22.43
2022-11-18T05:01:49.140Z,22.43
2022-11-18T05:04:18.812Z,22.43
2022-11-18T05:06:48.608Z,22.43
2022-11-18T05:09:17.410Z,22.42
2022-11-18T05:12:03.420Z,22.42
2022-11-18T05:14:31.952Z,22.43
2022-11-18T05:17:01.464Z,22.44
2022-11-18T05:19:29.804Z,22.42
2022-11-18T05:21:59.512Z,22.42
2022-11-18T05:24:27.874Z,22.44
2022-11-18T05:26:58.068Z,22.43
2022-11-18T05:29:26.391Z,22.44
2022-11-18T05:31:54.676Z,22.44
2022-11-18T05:34:23.113Z,22.44
2022-11-18T05:36:51.447Z,22.45
2022-11-18T05:39:21.533Z,22.44
2022-11-18T05:42:07.317Z,22.46
2022-11-18T05:44:35.652Z,22.51
2022-11-18T05:47:03.947Z,22.54
2022-11-18T05:49:32.348Z,22.55
2022-11-18T05:52:00.555Z,22.54
2022-11-18T05:54:30.336Z,22.54
2022-11-18T05:56:58.651Z,22.57
2022-11-18T05:59:27.206Z,22.56
2022-11-18T06:01:56.792Z,22.55
2022-11-18T06:04:27.404Z,22.56
2022-11-18T06:06:56.684Z,22.57
2022-11-18T06:09:26.367Z,22.58
2022-11-18T06:11:58.016Z,22.58
2022-11-18T06:14:27.183Z,22.59
2022-11-18T06:16:56.830Z,22.59
2022-11-18T06:19:25.129Z,22.59
2022-11-18T06:21:53.638Z,22.59
2022-11-18T06:24:22.033Z,22.59
2022-11-18T06:26:50.384Z,22.59
2022-11-18T06:29:24.552Z,22.60
2022-11-18T06:31:55.960Z,22.60
2022-11-18T06:34:24.312Z,22.60
2022-11-18T06:36:52.815Z,22.60
2022-11-18T06:39:21.315Z,22.60
2022-11-18T06:41:49.687Z,22.61
2022-11-18T06:44:18.351Z,22.60
2022-11-18T06:46:59.613Z,22.61
2022-11-18T06:49:29.090Z,22.61
2022-11-18T06:51:57.460Z,22.61
2022-11-18T06:54:25.812Z,22.62
2022-11-18T06:56:54.195Z,22.60
2022-11-18T06:59:25.360Z,22.60
2022-11-18T07:01:54.373Z,22.61
2022-11-18T07:04:22.876Z,22.61
2022-11-18T07:06:51.284Z,22.64
2022-11-18T07:09:19.844Z,22.64
2022-11-18T07:11:48.324Z,22.64
2022-11-18T07:14:16.598Z,22.63
2022-11-18T07:16:46.404Z,22.63
2022-11-18T07:19:15.038Z,22.65
2022-11-18T07:21:43.972Z,22.64
2022-11-18T07:24:13.851Z,22.64
2022-11-18T07:26:42.184Z,22.64
2022-11-18T07:29:10.610Z,22.63
2022-11-18T07:31:39.853Z,22.63
2022-11-18T07:34:09.684Z,22.63
2022-11-18T07:36:38.171Z,22.61
2022-11-18T07:39:06.953Z,22.60
2022-11-18T07:41:35.324Z,22.60
2022-11-18T07:44:04.280Z,22.62
2022-11-18T07:46:34.449Z,22.64
2022-11-18T07:49:03.400Z,22.66
2022-11-18T07:51:35.028Z,22.67
2022-11-18T07:54:03.448Z,22.68
2022-11-18T07:56:31.641Z,22.69
2022-11-18T07:59:00.243Z,22.69
2022-11-18T08:01:29.284Z,22.71
2022-11-18T08:03:57.841Z,22.71
2022-11-18T08:06:26.148Z,22.71
2022-11-18T08:08:55.908Z,22.72
2022-11-18T08:11:24.233Z,22.73
2022-11-18T08:13:53.085Z,22.74
2022-11-18T08:16:22.697Z,22.74
2022-11-18T08:18:51.078Z,22.74
2022-11-18T08:21:19.965Z,22.75
2022-11-18T08:23:51.100Z,22.75
2022-11-18T08:26:20.995Z,22.75
2022-11-18T08:28:49.456Z,22.75
2022-11-18T08:31:19.621Z,22.75
2022-11-18T08:33:48.073Z,22.77
2022-11-18T08:36:17.427Z,22.77
2022-11-18T08:38:45.819Z,22.77
2022-11-18T08:41:14.202Z,22.77
2022-11-18T08:43:44.086Z,22.76
2022-11-18T08:46:12.673Z,22.79
2022-11-18T08:48:40.888Z,22.79
2022-11-18T08:51:10.831Z,22.79
2022-11-18T08:53:39.371Z,22.79
2022-11-18T08:56:07.954Z,22.80
2022-11-18T08:58:36.536Z,22.79
2022-11-18T09:01:08.009Z,22.80
2022-11-18T09:03:36.340Z,22.80
2022-11-18T09:06:09.206Z,22.80
2022-11-18T09:08:37.490Z,22.80
2022-11-18T09:11:08.993Z,22.80
2022-11-18T09:16:28.298Z,22.78
2022-11-18T09:19:04.878Z,22.77
2022-11-18T09:21:41.556Z,22.78
2022-11-18T09:24:11.869Z,22.77
2022-11-18T09:26:40.198Z,22.78
2022-11-18T09:29:08.660Z,22.78
2022-11-18T09:31:38.466Z,22.77
2022-11-18T09:34:06.800Z,22.78
2022-11-18T09:36:35.117Z,22.78
2022-11-18T09:39:03.476Z,22.78
2022-11-18T09:41:41.941Z,22.78
2022-11-18T09:44:15.783Z,22.79
2022-11-18T09:46:51.929Z,22.80
2022-11-18T09:49:23.677Z,22.78
2022-11-18T09:51:52.323Z,22.78
2022-11-18T09:54:21.895Z,22.79
2022-11-18T09:56:50.366Z,22.80
2022-11-18T09:59:19.388Z,22.80
2022-11-18T10:01:49.230Z,22.78
2022-11-18T10:04:18.170Z,22.78
2022-11-18T10:06:46.853Z,22.77
2022-11-18T10:09:25.177Z,22.78
2022-11-18T10:12:01.563Z,22.79
2022-11-18T10:14:37.105Z,22.79
2022-11-18T10:17:09.484Z,22.79
2022-11-18T10:19:40.222Z,22.77
2022-11-18T10:22:22.632Z,22.76
2022-11-18T10:24:53.657Z,22.78
2022-11-18T10:27:21.969Z,22.79
2022-11-18T10:29:54.219Z,22.79
2022-11-18T10:32:24.063Z,22.80
2022-11-18T10:34:53.336Z,22.80
2022-11-18T10:37:39.031Z,22.80
2022-11-18T10:40:24.586Z,22.80
2022-11-18T10:42:52.823Z,22.81
2022-11-18T10:45:26.364Z,22.83
2022-11-18T10:48:04.005Z,22.82
2022-11-18T10:50:34.643Z,22.82
2022-11-18T10:53:03.145Z,22.83
2022-11-18T10:55:31.584Z,22.81
2022-11-18T10:58:02.972Z,22.81
2022-11-18T11:00:42.887Z,22.83
2022-11-18T11:03:42.986Z,22.85
2022-11-18T11:06:29.928Z,22.87
2022-11-18T11:08:59.644Z,22.87
2022-11-18T11:11:28.912Z,22.87
2022-11-18T11:14:07.535Z,22.86
2022-11-18T11:16:53.023Z,22.83
2022-11-18T11:19:24.624Z,22.74
2022-11-18T11:21:52.977Z,22.70
2022-11-18T11:24:21.549Z,22.66
2022-11-18T11:30:05.322Z,22.63
2022-11-18T11:32:40.179Z,22.63
2022-11-18T11:35:13.901Z,22.61
2022-11-18T11:37:48.525Z,22.62
2022-11-18T11:40:22.416Z,22.61
2022-11-18T11:42:55.137Z,22.59
2022-11-18T11:45:26.193Z,22.60
2022-11-18T11:48:07.102Z,22.60
2022-11-18T11:51:00.108Z,22.61
2022-11-18T11:53:52.921Z,22.59
2022-11-18T11:56:24.701Z,22.58
2022-11-18T11:59:10.577Z,22.58
2022-11-18T12:01:42.602Z,22.57
2022-11-18T12:04:18.000Z,22.56
2022-11-18T12:06:48.252Z,22.57
2022-11-18T12:09:19.509Z,22.57
2022-11-18T12:11:49.427Z,22.55
2022-11-18T12:14:23.111Z,22.55
2022-11-18T12:16:56.602Z,22.56
2022-11-18T12:19:24.968Z,22.56
2022-11-18T12:22:06.531Z,22.56
2022-11-18T12:24:36.873Z,22.57
2022-11-18T12:27:08.076Z,22.57
2022-11-18T12:29:55.773Z,22.58
2022-11-18T12:32:28.793Z,22.59
2022-11-18T12:34:58.916Z,22.59
2022-11-18T12:37:45.331Z,22.58
2022-11-18T12:40:42.482Z,22.59
2022-11-18T12:44:05.704Z,22.59
2022-11-18T12:46:53.244Z,22.56
2022-11-18T12:50:13.582Z,22.49
2022-11-18T12:52:50.362Z,22.52
2022-11-18T12:55:20.949Z,22.53
2022-11-18T12:57:49.183Z,22.49
2022-11-18T13:00:19.316Z,22.46
2022-11-18T13:02:53.187Z,22.46
2022-11-18T13:05:23.067Z,22.41
2022-11-18T13:08:11.504Z,22.37
2022-11-18T13:10:41.945Z,22.36
2022-11-18T13:13:15.113Z,22.37
2022-11-18T13:16:01.213Z,22.38
2022-11-18T13:18:29.431Z,22.40
2022-11-18T13:20:58.834Z,22.43
2022-11-18T13:23:49.946Z,22.44
2022-11-18T13:26:21.075Z,22.44
2022-11-18T13:29:12.256Z,22.42
2022-11-18T13:31:43.994Z,22.42
2022-11-18T13:34:14.306Z,22.42
2022-11-18T13:36:44.458Z,22.43
2022-11-18T13:39:22.484Z,22.44
2022-11-18T13:42:00.248Z,22.45
2022-11-18T13:44:29.353Z,22.45
2022-11-18T13:47:00.095Z,22.47
2022-11-18T13:49:35.195Z,22.48
2022-11-18T13:52:03.449Z,22.49
2022-11-18T13:54:33.145Z,22.49
2022-11-18T13:57:01.423Z,22.50
2022-11-18T13:59:30.320Z,22.50
2022-11-18T14:02:01.081Z,22.50
2022-11-18T14:04:31.747Z,22.51
2022-11-18T14:07:17.508Z,22.52
2022-11-18T14:09:55.681Z,22.52
2022-11-18T14:12:25.501Z,22.52
2022-11-18T14:14:53.827Z,22.53
2022-11-18T14:17:22.897Z,22.53
2022-11-18T14:19:51.957Z,22.54
2022-11-18T14:22:21.140Z,22.54
2022-11-18T14:24:58.101Z,22.52
2022-11-18T14:27:31.778Z,22.52
2022-11-18T14:30:00.325Z,22.52
2022-11-18T14:32:28.590Z,22.52
2022-11-18T14:35:00.831Z,22.52
2022-11-18T14:37:29.134Z,22.52
2022-11-18T14:39:59.066Z,22.53
2022-11-18T14:42:27.398Z,22.53
2022-11-18T14:44:55.940Z,22.54
2022-11-18T14:47:26.259Z,22.54
2022-11-18T14:49:54.557Z,22.54
2022-11-18T14:52:22.783Z,22.55
2022-11-18T14:54:52.249Z,22.55
2022-11-18T14:57:22.179Z,22.55
2022-11-18T14:59:50.414Z,22.54
2022-11-18T15:02:19.201Z,22.53
2022-11-18T15:04:48.695Z,22.53
2022-11-18T15:07:23.418Z,22.53
2022-11-18T15:09:52.321Z,22.53
2022-11-18T15:12:22.007Z,22.53
2022-11-18T15:14:50.289Z,22.53
2022-11-18T15:17:20.415Z,22.53
2022-11-18T15:19:48.924Z,22.55
2022-11-18T15:22:17.645Z,22.55
2022-11-18T15:24:45.897Z,22.56
2022-11-18T15:27:14.100Z,22.57
2022-11-18T15:29:44.077Z,22.57
2022-11-18T15:32:12.408Z,22.59
2022-11-18T15:34:40.619Z,22.60
2022-11-18T15:37:10.916Z,22.61
2022-11-18T15:39:39.365Z,22.61
2022-11-18T15:42:07.646Z,22.62
2022-11-18T15:44:35.922Z,22.63
2022-11-18T15:47:05.692Z,22.65
2022-11-18T15:49:33.999Z,22.65
2022-11-18T15:52:02.251Z,22.67
2022-11-18T15:54:30.555Z,22.68
2022-11-18T15:56:58.874Z,22.69
2022-11-18T15:59:27.385Z,22.70
2022-11-18T16:01:56.429Z,22.71
2022-11-18T16:04:26.261Z,22.71
2022-11-18T16:06:55.020Z,22.72
2022-11-18T16:09:23.289Z,22.73
2022-11-18T16:12:09.081Z,22.75
2022-11-18T16:14:38.181Z,22.75
2022-11-18T16:17:06.479Z,22.77
2022-11-18T16:19:36.103Z,22.78
2022-11-18T16:22:04.394Z,22.78
2022-11-18T16:24:32.623Z,22.80
2022-11-18T16:27:00.898Z,22.82
2022-11-18T16:29:29.609Z,22.83
2022-11-18T16:31:56.828Z,22.85
2022-11-18T16:34:25.770Z,22.86
2022-11-18T16:36:56.653Z,22.87
2022-11-18T16:39:26.187Z,22.88
2022-11-18T16:42:02.167Z,22.90
2022-11-18T16:44:35.447Z,22.91
2022-11-18T16:47:06.525Z,22.92
2022-11-18T16:49:39.026Z,22.93
2022-11-18T16:52:08.698Z,22.95
2022-11-18T16:54:42.843Z,22.96
2022-11-18T16:57:12.894Z,22.97
2022-11-18T16:59:43.710Z,22.99
2022-11-18T17:02:13.231Z,22.99
2022-11-18T17:04:42.361Z,23.01
2022-11-18T17:07:12.063Z,23.03
2022-11-18T17:09:40.457Z,23.04
2022-11-18T17:12:09.331Z,23.06
2022-11-18T17:14:38.771Z,23.06
2022-11-18T17:17:07.149Z,23.07
2022-11-18T17:19:35.528Z,23.09
2022-11-18T17:22:03.876Z,23.12
2022-11-18T17:24:33.504Z,23.14
2022-11-18T17:27:01.767Z,23.14
2022-11-18T17:29:30.163Z,23.14
2022-11-18T17:31:58.392Z,23.15
2022-11-18T17:34:26.624Z,23.15
2022-11-18T17:36:57.423Z,23.15
2022-11-18T17:39:27.419Z,23.16
2022-11-18T17:42:15.504Z,23.17
2022-11-18T17:44:43.841Z,23.20
2022-11-18T17:47:12.055Z,23.21
2022-11-18T17:49:40.322Z,23.22
2022-11-18T17:52:08.767Z,23.24
2022-11-18T17:54:37.037Z,23.26
2022-11-18T17:57:06.924Z,23.28
2022-11-18T17:59:35.439Z,23.29
2022-11-18T18:02:03.734Z,23.31
2022-11-18T18:04:32.270Z,23.32
2022-11-18T18:07:00.701Z,23.35
2022-11-18T18:09:31.257Z,23.34
2022-11-18T18:12:00.880Z,23.36
2022-11-18T18:14:30.121Z,23.36
2022-11-18T18:17:00.369Z,23.37
2022-11-18T18:19:28.653Z,23.38
2022-11-18T18:21:56.867Z,23.39
2022-11-18T18:24:25.152Z,23.40
2022-11-18T18:26:53.352Z,23.41
2022-11-18T18:29:21.725Z,23.42
2022-11-18T18:31:51.372Z,23.42
2022-11-18T18:34:19.987Z,23.44
2022-11-18T18:36:48.293Z,23.44
2022-11-18T18:39:16.723Z,23.45
2022-11-18T18:41:44.982Z,23.46
2022-11-18T18:44:18.284Z,23.46
2022-11-18T18:46:45.900Z,23.47
2022-11-18T18:49:20.463Z,23.47
2022-11-18T18:51:50.265Z,23.46
2022-11-18T18:54:20.332Z,23.48
2022-11-18T18:56:49.265Z,23.48
2022-11-18T18:59:17.457Z,23.49
2022-11-18T19:01:45.904Z,23.50
2022-11-18T19:04:16.949Z,23.50
2022-11-18T19:06:56.816Z,23.49
2022-11-18T19:09:27.706Z,23.50
2022-11-18T19:12:13.534Z,23.50
2022-11-18T19:14:42.221Z,23.51
2022-11-18T19:17:12.040Z,23.51
2022-11-18T19:19:59.936Z,23.51
2022-11-18T19:22:29.967Z,23.52
2022-11-18T19:24:58.830Z,23.50
2022-11-18T19:27:27.618Z,23.52
2022-11-18T19:29:55.853Z,23.53
2022-11-18T19:32:24.569Z,23.53
2022-11-18T19:34:54.250Z,23.53
2022-11-18T19:37:22.492Z,23.54
2022-11-18T19:39:50.825Z,23.54
2022-11-18T19:42:19.280Z,23.55
2022-11-18T19:44:47.492Z,23.55
2022-11-18T19:47:15.724Z,23.54
2022-11-18T19:49:43.965Z,23.56
2022-11-18T19:52:13.695Z,23.57
2022-11-18T19:54:42.472Z,23.58
2022-11-18T19:57:10.763Z,23.56
2022-11-18T19:59:39.758Z,23.57
2022-11-18T20:02:08.149Z,23.59
2022-11-18T20:04:37.745Z,23.58
2022-11-18T20:07:06.217Z,23.60
2022-11-18T20:09:36.445Z,23.59
2022-11-18T20:12:04.919Z,23.60
2022-11-18T20:14:33.154Z,23.60
2022-11-18T20:17:01.489Z,23.61
2022-11-18T20:19:29.733Z,23.61
2022-11-18T20:21:58.138Z,23.61
2022-11-18T20:24:26.383Z,23.62
2022-11-18T20:26:56.289Z,23.63
2022-11-18T20:29:25.053Z,23.62
2022-11-18T20:31:53.756Z,23.63
2022-11-18T20:34:22.349Z,23.62
2022-11-18T20:36:53.669Z,23.60
2022-11-18T20:39:22.134Z,23.60
2022-11-18T20:42:07.289Z,23.60
2022-11-18T20:44:36.993Z,23.59
2022-11-18T20:47:05.496Z,23.58
2022-11-18T20:49:33.750Z,23.58
2022-11-18T20:52:01.968Z,23.59
2022-11-18T20:54:30.253Z,23.60
2022-11-18T20:56:58.596Z,23.60
2022-11-18T20:59:26.851Z,23.61
2022-11-18T21:01:57.028Z,23.61
2022-11-18T21:04:25.512Z,23.60
2022-11-18T21:06:58.942Z,23.61
2022-11-18T21:09:31.565Z,23.60
2022-11-18T21:11:59.952Z,23.60
2022-11-18T21:14:27.329Z,23.59
2022-11-18T21:17:00.693Z,23.59
2022-11-18T21:19:29.359Z,23.59
2022-11-18T21:21:56.627Z,23.59
2022-11-18T21:24:25.501Z,23.58
2022-11-18T21:26:55.485Z,23.57
2022-11-18T21:29:24.013Z,23.56
2022-11-18T21:31:52.262Z,23.56
2022-11-18T21:34:22.121Z,23.55
2022-11-18T21:36:54.202Z,23.55
2022-11-18T21:39:23.593Z,23.55
2022-11-18T21:41:56.398Z,23.53
2022-11-18T21:44:25.363Z,23.53
2022-11-18T21:46:53.744Z,23.52
2022-11-18T21:49:23.919Z,23.51
2022-11-18T21:51:52.203Z,23.50
2022-11-18T21:54:20.395Z,23.49
2022-11-18T21:56:48.697Z,23.49
2022-11-18T21:59:17.225Z,23.48
2022-11-18T22:01:45.924Z,23.46
2022-11-18T22:04:34.564Z,23.45
2022-11-18T22:07:05.444Z,23.45
2022-11-18T22:09:36.782Z,23.45
2022-11-18T22:12:07.098Z,23.42
2022-11-18T22:14:36.041Z,23.42
2022-11-18T22:17:04.447Z,23.42
2022-11-18T22:19:32.713Z,23.40
2022-11-18T22:22:01.074Z,23.39
2022-11-18T22:24:30.912Z,23.38
2022-11-18T22:26:59.189Z,23.38
2022-11-18T22:29:27.446Z,23.36
2022-11-18T22:31:55.737Z,23.35
2022-11-18T22:34:24.124Z,23.35
2022-11-18T22:36:52.464Z,23.35
2022-11-18T22:39:21.148Z,23.33
2022-11-18T22:42:08.807Z,23.32
2022-11-18T22:44:37.284Z,23.32
2022-11-18T22:47:05.579Z,23.31
2022-11-18T22:49:33.877Z,23.30
2022-11-18T22:52:02.275Z,23.30
2022-11-18T22:54:38.789Z,23.31
2022-11-18T22:57:09.340Z,23.31
2022-11-18T22:59:37.582Z,23.30
2022-11-18T23:02:05.858Z,23.30
2022-11-18T23:04:34.107Z,23.29
2022-11-18T23:07:02.369Z,23.27
2022-11-18T23:09:30.605Z,23.26
2022-11-18T23:12:15.886Z,23.27
2022-11-18T23:14:45.645Z,23.24
2022-11-18T23:17:14.000Z,23.25
2022-11-18T23:19:43.639Z,23.24
2022-11-18T23:22:12.099Z,23.23
2022-11-18T23:24:40.461Z,23.22
2022-11-18T23:27:08.705Z,23.21
2022-11-18T23:29:37.187Z,23.22
2022-11-18T23:32:07.066Z,23.21
2022-11-18T23:34:35.411Z,23.19
2022-11-18T23:37:03.684Z,23.19
2022-11-18T23:39:31.962Z,23.19
2022-11-18T23:42:00.339Z,23.17
2022-11-18T23:44:47.965Z,23.16
2022-11-18T23:47:17.672Z,23.17
2022-11-18T23:49:46.194Z,23.15
2022-11-18T23:52:15.047Z,23.15
2022-11-18T23:54:43.342Z,23.15
2022-11-18T23:57:11.547Z,23.14
2022-11-18T23:59:39.917Z,23.13
